Time;durP1;ratioP1;P1;durP2;ratioP2;P2;SDS_P1;SDS_P2;PMS_P1;PMS_P2;Temp;Humidity;BMP_temperature;BMP_pressure;BME280_temperature;BME280_humidity;BME280_pressure;Samples;Min_cycle;Max_cycle;Signal;HPM_P1;HPM_P2
2021/07/27 00:00:46;;;;;;;16.48;7.38;;;;;;;23.17;47.20;99864.06;5004606;28;20526;-70
2021/07/27 00:03:11;;;;;;;13.40;7.22;;;;;;;22.86;48.27;99873.94;5010594;28;20045;-69
2021/07/27 00:05:37;;;;;;;10.77;7.38;;;;;;;22.75;48.53;99870.28;5010526;28;20480;-69
2021/07/27 00:08:03;;;;;;;17.02;8.27;;;;;;;23.31;47.06;99866.09;5009893;28;20030;-71
2021/07/27 00:10:28;;;;;;;10.85;8.73;;;;;;;23.22;47.00;99866.50;5006476;28;20022;-69
2021/07/27 00:12:54;;;;;;;18.73;8.25;;;;;;;23.04;47.61;99861.66;5010373;28;20026;-70
2021/07/27 00:15:20;;;;;;;10.80;7.43;;;;;;;23.14;47.10;99860.81;5010388;28;20044;-72
2021/07/27 00:17:45;;;;;;;11.27;8.15;;;;;;;23.23;47.63;99856.72;5007434;28;20046;-69
2021/07/27 00:20:11;;;;;;;14.80;8.52;;;;;;;22.89;48.84;99854.38;5003691;28;20029;-70
2021/07/27 00:22:40;;;;;;;10.70;7.97;;;;;;;23.02;48.50;99858.41;5000053;28;20026;-70
2021/07/27 00:25:10;;;;;;;19.15;8.48;;;;;;;23.04;48.62;99864.50;5008830;28;20026;-70
2021/07/27 00:27:36;;;;;;;9.30;7.00;;;;;;;22.96;49.00;99860.06;5004577;28;20124;-69
2021/07/27 00:30:06;;;;;;;11.43;7.43;;;;;;;22.93;48.79;99866.59;5008805;28;20068;-70
2021/07/27 00:32:32;;;;;;;10.55;7.40;;;;;;;23.05;48.67;99865.34;5010195;28;20484;-70
2021/07/27 00:34:58;;;;;;;12.57;7.60;;;;;;;22.76;50.21;99869.06;5010000;28;20033;-70
2021/07/27 00:37:28;;;;;;;8.60;7.40;;;;;;;22.88;50.00;99861.28;5005291;28;20049;-69
2021/07/27 00:39:54;;;;;;;12.20;6.78;;;;;;;22.60;50.50;99860.13;5010147;28;20030;-70
2021/07/27 00:42:20;;;;;;;8.73;7.80;;;;;;;22.71;50.63;99860.94;5010095;28;20088;-71
2021/07/27 00:44:45;;;;;;;10.48;8.68;;;;;;;22.60;50.88;99866.63;5007170;28;20030;-70
2021/07/27 00:47:14;;;;;;;13.50;7.70;;;;;;;22.50;51.06;99858.88;5008336;28;20018;-69
2021/07/27 00:49:39;;;;;;;11.18;7.40;;;;;;;22.65;50.58;99856.84;5003629;28;20129;-70
2021/07/27 00:52:06;;;;;;;12.52;7.40;;;;;;;22.84;50.22;99862.13;5009971;28;20404;-69
2021/07/27 00:54:33;;;;;;;9.00;7.30;;;;;;;22.46;51.25;99863.75;5004557;28;20076;-70
2021/07/27 00:56:58;;;;;;;12.35;7.03;;;;;;;22.72;50.70;99868.25;5009571;28;20084;-70
2021/07/27 00:59:24;;;;;;;12.40;8.43;;;;;;;22.38;52.10;99866.59;5008745;28;20458;-70
2021/07/27 01:01:49;;;;;;;13.75;7.60;;;;;;;22.74;51.20;99871.50;5008732;28;20467;-69
2021/07/27 01:04:15;;;;;;;15.52;9.57;;;;;;;22.93;50.88;99875.94;5008056;28;20300;-70
2021/07/27 01:06:40;;;;;;;12.55;9.68;;;;;;;22.51;51.84;99864.19;5009707;28;20057;-70
2021/07/27 01:09:05;;;;;;;12.13;8.00;;;;;;;22.62;51.74;99866.22;5008864;28;20092;-70
2021/07/27 01:11:31;;;;;;;12.73;8.32;;;;;;;22.49;52.31;99858.09;5010541;28;20018;-69
2021/07/27 01:13:56;;;;;;;13.18;8.43;;;;;;;22.48;52.75;99855.59;5011616;28;20033;-69
2021/07/27 01:16:29;;;;;;;17.13;9.02;;;;;;;22.54;52.40;99857.66;5013133;28;20503;-69
2021/07/27 01:19:17;;;;;;;10.70;8.13;;;;;;;22.36;52.63;99859.69;5013244;28;20042;-70
2021/07/27 01:40:59;;;;;;;14.75;10.40;;;;;;;22.00;49.28;99875.53;5004369;28;20558;-70
2021/07/27 01:43:30;;;;;;;19.13;12.30;;;;;;;21.90;49.85;99882.00;5011678;28;20507;-70
2021/07/27 01:45:56;;;;;;;23.33;13.80;;;;;;;22.05;49.32;99879.19;5012678;28;20040;-71
2021/07/27 01:48:28;;;;;;;17.02;13.60;;;;;;;22.07;49.08;99879.59;5010040;28;20034;-70
2021/07/27 01:50:56;;;;;;;17.55;14.07;;;;;;;21.97;49.47;99884.06;5011169;28;20037;-69
2021/07/27 01:53:33;;;;;;;25.35;19.85;;;;;;;21.60;51.22;99886.75;5012699;28;20550;-69
2021/07/27 01:55:59;;;;;;;40.85;36.28;;;;;;;21.67;51.05;99888.84;5011126;28;20104;-69
2021/07/27 01:58:24;;;;;;;32.65;29.35;;;;;;;21.66;51.04;99883.50;5003350;28;20496;-69
2021/07/27 02:00:49;;;;;;;20.30;18.20;;;;;;;21.55;51.00;99889.19;5023535;28;20389;-70
2021/07/27 02:03:15;;;;;;;17.58;14.10;;;;;;;21.86;49.71;99882.00;5027589;28;20045;-71
2021/07/27 02:05:41;;;;;;;15.63;13.93;;;;;;;21.69;49.82;99889.25;5027507;28;20038;-69
2021/07/27 02:08:06;;;;;;;17.25;11.48;;;;;;;21.62;49.80;99888.38;5021378;28;20415;-69
2021/07/27 02:10:32;;;;;;;13.07;10.73;;;;;;;21.80;49.82;99885.63;5011262;28;20041;-70
2021/07/27 02:13:11;;;;;;;17.17;12.23;;;;;;;21.89;49.22;99880.38;5012225;28;20034;-69
2021/07/27 02:15:41;;;;;;;24.75;11.98;;;;;;;21.71;49.58;99878.28;5010967;28;20026;-69
2021/07/27 02:18:06;;;;;;;21.10;12.55;;;;;;;21.90;49.28;99884.84;5009889;28;20059;-69
2021/07/27 02:20:32;;;;;;;31.02;12.38;;;;;;;22.01;48.60;99893.41;5012137;28;20199;-70
2021/07/27 02:22:58;;;;;;;28.80;11.88;;;;;;;21.86;48.88;99887.69;5011161;28;20079;-69
2021/07/27 02:25:23;;;;;;;14.77;10.75;;;;;;;21.90;48.72;99887.69;5007760;28;20029;-71
2021/07/27 02:27:49;;;;;;;15.45;11.02;;;;;;;21.88;48.88;99884.44;5006117;28;20455;-70
2021/07/27 02:30:15;;;;;;;17.15;12.40;;;;;;;21.85;48.93;99890.94;5011858;28;20026;-70
2021/07/27 02:32:40;;;;;;;18.65;11.63;;;;;;;21.43;49.98;99896.84;5011768;28;20034;-70
2021/07/27 02:35:07;;;;;;;20.05;11.80;;;;;;;21.40;50.65;99885.44;5005552;28;20022;-70
2021/07/27 02:37:33;;;;;;;16.42;10.90;;;;;;;21.50;50.27;99892.41;5011780;28;20042;-69
2021/07/27 02:40:00;;;;;;;15.52;11.57;;;;;;;21.21;50.39;99886.56;5011578;28;20491;-70
2021/07/27 02:42:26;;;;;;;15.07;11.68;;;;;;;21.35;50.63;99894.38;5011613;28;20533;-70
2021/07/27 02:44:51;;;;;;;13.60;11.52;;;;;;;21.26;50.97;99891.91;5009354;28;20030;-69
2021/07/27 02:47:17;;;;;;;19.52;12.25;;;;;;;21.04;51.44;99895.41;5011316;28;20037;-70
2021/07/27 02:49:42;;;;;;;17.95;12.57;;;;;;;20.89;51.95;99883.16;5011604;28;20085;-69
2021/07/27 02:52:08;;;;;;;17.83;12.23;;;;;;;20.93;51.78;99894.53;5008209;28;20044;-70
2021/07/27 02:54:33;;;;;;;26.98;13.68;;;;;;;20.94;51.81;99896.19;5009906;28;20546;-69
2021/07/27 02:56:59;;;;;;;19.08;11.18;;;;;;;20.86;52.16;99894.50;5009279;28;20117;-70
2021/07/27 02:59:25;;;;;;;34.70;12.57;;;;;;;20.85;52.03;99890.03;5011244;28;20529;-69
2021/07/27 03:01:53;;;;;;;17.45;11.73;;;;;;;21.13;51.27;99895.09;5006523;28;20029;-70
2021/07/27 03:04:19;;;;;;;19.15;11.73;;;;;;;21.06;51.66;99894.19;5026328;28;20040;-73
2021/07/27 03:13:02;;;;;;;14.50;10.60;;;;;;;21.34;50.91;99910.63;5006316;28;20556;-74
2021/07/27 03:15:31;;;;;;;15.32;11.40;;;;;;;20.90;51.48;99906.69;5011314;28;20017;-73
2021/07/27 03:17:58;;;;;;;18.98;10.48;;;;;;;21.02;51.18;99909.22;5010641;28;20068;-74
2021/07/27 03:20:25;;;;;;;12.85;11.10;;;;;;;21.31;50.58;99909.41;5003104;28;20038;-74
2021/07/27 03:22:57;;;;;;;23.75;11.45;;;;;;;21.08;50.97;99911.69;5010913;28;20034;-74
2021/07/27 03:25:23;;;;;;;18.50;11.48;;;;;;;21.17;50.83;99912.97;5008094;28;20057;-74
2021/07/27 03:27:52;;;;;;;17.90;11.40;;;;;;;21.16;50.58;99917.03;5008903;28;20331;-74
2021/07/27 03:30:19;;;;;;;15.43;10.57;;;;;;;21.24;50.52;99925.63;5001922;28;20041;-75
2021/07/27 03:32:48;;;;;;;19.52;11.52;;;;;;;21.18;50.75;99911.75;5007528;28;20483;-74
2021/07/27 03:35:18;;;;;;;24.25;10.93;;;;;;;21.05;51.10;99919.00;5023907;28;20038;-73
2021/07/27 03:37:43;;;;;;;13.60;9.98;;;;;;;21.14;50.73;99916.63;5004948;28;20188;-74
2021/07/27 03:40:10;;;;;;;14.73;10.18;;;;;;;21.36;50.02;99918.75;5009395;28;20034;-74
2021/07/27 03:42:36;;;;;;;24.00;11.32;;;;;;;21.16;50.77;99913.38;5010782;28;20407;-74
2021/07/27 03:45:02;;;;;;;14.98;10.35;;;;;;;21.12;50.80;99907.69;5010511;28;20036;-74
2021/07/27 03:47:28;;;;;;;23.10;14.65;;;;;;;21.15;50.95;99917.41;5009536;28;20471;-78
2021/07/27 03:49:54;;;;;;;71.88;39.35;;;;;;;21.30;50.14;99924.00;5010346;28;20076;-74
2021/07/27 03:52:19;;;;;;;38.58;27.23;;;;;;;21.22;50.33;99922.34;5009227;28;20070;-74
2021/07/27 03:54:45;;;;;;;21.40;16.17;;;;;;;21.08;51.03;99935.25;5009368;28;20029;-74
2021/07/27 03:57:11;;;;;;;18.80;12.88;;;;;;;20.84;51.76;99940.38;5002234;28;20034;-74
2021/07/27 03:59:36;;;;;;;13.18;11.63;;;;;;;21.14;51.13;99942.22;5007636;28;20072;-75
2021/07/27 04:02:02;;;;;;;25.33;12.75;;;;;;;21.10;51.46;99937.72;5008679;28;20022;-74
2021/07/27 04:04:31;;;;;;;16.13;13.60;;;;;;;21.23;50.96;99926.81;5007741;28;20061;-75
2021/07/27 04:06:58;;;;;;;21.05;13.57;;;;;;;21.22;51.10;99933.72;5004210;28;20405;-73
2021/07/27 04:09:24;;;;;;;19.45;16.08;;;;;;;21.11;51.30;99930.81;5010363;28;20041;-73
2021/07/27 04:11:50;;;;;;;20.35;14.63;;;;;;;21.20;51.05;99930.44;5010347;28;20037;-75
2021/07/27 04:14:15;;;;;;;14.70;13.18;;;;;;;21.27;50.85;99922.78;5009226;28;20401;-74
2021/07/27 04:16:41;;;;;;;17.55;14.85;;;;;;;21.20;51.05;99930.44;5005240;28;20069;-73
2021/07/27 04:19:07;;;;;;;19.02;14.63;;;;;;;21.28;51.10;99938.63;5005411;28;20424;-74
2021/07/27 04:21:33;;;;;;;21.13;13.38;;;;;;;21.05;51.90;99936.06;5009176;28;20030;-74
2021/07/27 04:23:59;;;;;;;17.70;12.60;;;;;;;21.17;51.45;99938.56;5010709;28;20042;-74
2021/07/27 04:26:27;;;;;;;15.10;12.35;;;;;;;21.30;51.33;99935.41;5008361;28;20061;-74
2021/07/27 04:28:52;;;;;;;16.13;12.95;;;;;;;21.27;51.38;99930.50;5001619;28;20077;-73
2021/07/27 04:31:18;;;;;;;17.55;11.70;;;;;;;20.98;52.24;99938.84;5007362;28;20567;-73
2021/07/27 04:33:43;;;;;;;22.38;11.57;;;;;;;21.04;52.58;99940.91;5009906;28;20034;-73
2021/07/27 04:36:10;;;;;;;17.27;11.95;;;;;;;21.02;52.43;99943.34;5009441;28;20041;-70
2021/07/27 04:38:36;;;;;;;24.20;12.70;;;;;;;21.20;52.49;99947.50;5003924;28;20045;-76
2021/07/27 04:41:06;;;;;;;23.52;12.80;;;;;;;21.14;52.64;99945.06;4999617;28;20039;-77
2021/07/27 04:43:32;;;;;;;21.40;12.60;;;;;;;21.37;52.12;99951.69;5020603;28;20499;-78
2021/07/27 04:46:02;;;;;;;23.55;11.00;;;;;;;21.41;52.39;99941.13;5010234;28;20034;-73
2021/07/27 04:48:28;;;;;;;17.33;10.23;;;;;;;21.32;52.11;99944.34;5013021;28;20033;-77
2021/07/27 04:50:53;;;;;;;18.85;11.35;;;;;;;21.24;52.32;99942.69;5013759;28;20038;-72
2021/07/27 04:53:22;;;;;;;13.00;9.93;;;;;;;21.32;52.26;99935.81;5005327;28;20049;-76
2021/07/27 04:55:48;;;;;;;15.43;9.90;;;;;;;21.34;51.73;99941.91;5013637;28;20062;-77
2021/07/27 04:58:14;;;;;;;14.13;9.82;;;;;;;21.31;51.67;99932.16;5013696;28;20496;-76
2021/07/27 05:00:39;;;;;;;21.17;9.93;;;;;;;21.27;51.83;99936.19;5013718;28;20034;-77
2021/07/27 05:03:04;;;;;;;19.73;9.45;;;;;;;21.31;51.04;99943.53;5009246;28;20044;-71
2021/07/27 05:05:30;;;;;;;18.33;10.38;;;;;;;21.40;51.09;99948.03;5013475;28;20084;-77
2021/07/27 05:07:58;;;;;;;17.80;8.93;;;;;;;21.55;50.67;99934.72;4998084;28;20030;-77
2021/07/27 05:10:24;;;;;;;13.02;8.65;;;;;;;21.62;50.18;99934.75;5023551;28;20026;-70
2021/07/27 05:12:49;;;;;;;14.52;8.27;;;;;;;21.80;49.31;99936.88;5011951;28;20427;-71
2021/07/27 05:15:15;;;;;;;18.48;8.38;;;;;;;21.77;49.36;99934.84;5002522;28;20023;-70
2021/07/27 05:17:51;;;;;;;13.23;8.18;;;;;;;21.83;48.89;99933.22;5012933;28;20040;-70
2021/07/27 05:20:16;;;;;;;23.33;8.65;;;;;;;21.85;48.75;99934.44;5011321;28;20041;-72
2021/07/27 05:22:42;;;;;;;18.48;7.50;;;;;;;22.09;48.62;99934.13;5012823;28;20652;-70
2021/07/27 05:25:08;;;;;;;10.05;7.47;;;;;;;22.12;47.91;99939.81;5012058;28;20026;-69
2021/07/27 05:27:35;;;;;;;13.10;6.85;;;;;;;22.32;47.54;99944.31;5013042;28;20117;-70
2021/07/27 05:30:02;;;;;;;9.77;7.35;;;;;;;22.27;47.09;99934.97;5008718;28;20026;-70
2021/07/27 05:32:28;;;;;;;12.43;7.40;;;;;;;22.47;47.11;99937.44;5011567;28;20415;-70
2021/07/27 05:34:53;;;;;;;14.07;7.45;;;;;;;22.45;46.87;99942.75;5011654;28;20022;-71
2021/07/27 05:37:19;;;;;;;16.15;7.53;;;;;;;22.56;46.74;99943.59;5012989;28;20030;-70
2021/07/27 05:39:45;;;;;;;13.75;7.53;;;;;;;22.61;46.50;99927.31;5010620;28;20521;-71
2021/07/27 05:42:11;;;;;;;16.20;8.73;;;;;;;22.62;46.66;99929.72;5013553;28;20029;-70
2021/07/27 05:44:36;;;;;;;12.75;7.72;;;;;;;22.67;46.26;99925.66;5012715;28;20128;-71
2021/07/27 05:47:02;;;;;;;10.05;8.63;;;;;;;22.90;46.19;99928.09;5010548;28;20081;-71
2021/07/27 05:49:28;;;;;;;14.35;6.80;;;;;;;23.02;45.82;99920.34;5006464;28;20108;-71
2021/07/27 05:51:55;;;;;;;28.77;8.32;;;;;;;23.14;45.15;99932.13;5012644;28;20014;-71
2021/07/27 05:54:22;;;;;;;11.55;7.38;;;;;;;23.23;44.81;99933.75;5011649;28;20037;-72
2021/07/27 05:56:48;;;;;;;13.13;7.57;;;;;;;23.36;44.95;99923.56;5006138;28;20036;-73
2021/07/27 05:59:14;;;;;;;10.77;8.43;;;;;;;23.52;44.59;99928.81;5011488;28;20041;-71
2021/07/27 06:01:40;;;;;;;15.25;7.38;;;;;;;23.64;43.95;99921.81;5012470;28;20525;-70
2021/07/27 06:04:06;;;;;;;12.50;6.10;;;;;;;23.78;42.59;99920.94;5012927;28;20065;-69
2021/07/27 06:06:31;;;;;;;10.30;7.63;;;;;;;23.79;43.27;99910.34;5010077;28;20480;-70
2021/07/27 06:09:02;;;;;;;8.35;6.80;;;;;;;23.86;42.29;99910.31;5011893;28;20105;-70
2021/07/27 06:11:28;;;;;;;9.32;7.00;;;;;;;23.91;41.47;99909.88;5010594;28;20026;-71
2021/07/27 06:13:53;;;;;;;12.40;5.57;;;;;;;24.07;41.24;99909.41;5011725;28;20033;-69
2021/07/27 06:16:18;;;;;;;10.50;6.38;;;;;;;24.13;40.98;99909.75;4998751;28;20397;-69
2021/07/27 06:18:44;;;;;;;10.30;6.25;;;;;;;24.21;40.74;99908.50;5006516;28;20435;-69
2021/07/27 06:21:11;;;;;;;10.95;6.65;;;;;;;24.33;41.21;99912.91;5011683;28;20013;-69
2021/07/27 06:23:37;;;;;;;11.25;7.05;;;;;;;24.58;39.55;99911.09;5009925;28;20034;-69
2021/07/27 06:26:06;;;;;;;13.75;6.05;;;;;;;24.55;39.38;99909.88;5011502;28;20037;-75
2021/07/27 06:28:33;;;;;;;9.43;5.60;;;;;;;24.65;38.40;99902.47;5010555;28;20088;-69
2021/07/27 06:30:58;;;;;;;10.88;5.90;;;;;;;24.74;39.44;99905.66;5026844;28;20453;-69
2021/07/27 06:33:24;;;;;;;11.10;6.65;;;;;;;24.78;38.41;99900.72;5009681;28;20518;-69
2021/07/27 06:35:57;;;;;;;10.18;5.93;;;;;;;24.85;39.16;99901.88;5012100;28;20100;-69
2021/07/27 06:38:23;;;;;;;8.80;5.68;;;;;;;25.00;38.59;99900.53;5011692;28;20042;-71
2021/07/27 06:40:49;;;;;;;16.27;6.00;;;;;;;25.05;38.41;99900.06;5011453;28;20446;-71
2021/07/27 06:43:14;;;;;;;21.40;6.80;;;;;;;25.21;39.12;99899.47;5009419;28;20104;-71
2021/07/27 06:45:40;;;;;;;6.80;5.53;;;;;;;25.25;39.05;99899.44;5026672;28;20034;-70
2021/07/27 06:48:06;;;;;;;17.60;5.95;;;;;;;25.39;38.93;99904.16;5011375;28;20037;-71
2021/07/27 06:50:31;;;;;;;8.48;5.97;;;;;;;25.37;37.72;99900.94;5008003;28;20038;-71
2021/07/27 06:52:56;;;;;;;7.75;5.95;;;;;;;25.48;37.68;99906.53;5007374;28;20038;-71
2021/07/27 06:55:22;;;;;;;12.88;5.30;;;;;;;25.53;37.53;99911.81;5011227;28;20042;-71
2021/07/27 06:57:47;;;;;;;8.50;5.47;;;;;;;25.66;38.44;99906.34;5026217;28;20034;-71
2021/07/27 07:00:14;;;;;;;12.18;5.80;;;;;;;25.77;37.36;99911.94;5009108;28;20030;-71
2021/07/27 07:02:39;;;;;;;9.45;5.00;;;;;;;25.88;38.18;99900.31;5010112;28;20040;-71
2021/07/27 07:05:05;;;;;;;7.05;4.88;;;;;;;25.97;37.54;99903.47;5009124;28;20037;-71
2021/07/27 07:07:30;;;;;;;10.35;5.30;;;;;;;26.06;36.40;99894.31;5009451;28;20034;-72
2021/07/27 07:09:56;;;;;;;8.18;5.80;;;;;;;26.06;36.83;99897.19;5004173;28;20022;-71
2021/07/27 07:12:23;;;;;;;8.55;5.78;;;;;;;26.18;37.32;99908.09;5009446;28;20053;-69
2021/07/27 07:14:54;;;;;;;8.90;5.32;;;;;;;26.27;37.19;99904.72;5009172;28;20484;-69
2021/07/27 07:17:19;;;;;;;7.13;5.25;;;;;;;26.33;36.41;99896.44;5008206;28;20052;-69
2021/07/27 07:19:44;;;;;;;9.55;5.88;;;;;;;26.30;37.22;99891.53;5008142;28;20412;-69
2021/07/27 07:22:11;;;;;;;13.27;7.03;;;;;;;26.42;36.67;99893.81;5009872;28;20033;-69
2021/07/27 07:24:36;;;;;;;11.70;6.00;;;;;;;26.51;37.34;99884.66;5009811;28;20031;-70
2021/07/27 07:27:02;;;;;;;11.75;5.78;;;;;;;26.59;36.95;99880.41;5004957;28;20026;-69
2021/07/27 07:29:27;;;;;;;12.20;6.05;;;;;;;26.59;36.46;99879.63;5006755;28;20534;-70
2021/07/27 07:31:53;;;;;;;7.70;4.97;;;;;;;26.71;36.89;99876.13;5009682;28;20425;-70
2021/07/27 07:34:18;;;;;;;7.68;4.78;;;;;;;26.80;37.25;99874.75;5010335;28;20030;-70
2021/07/27 07:36:43;;;;;;;8.25;5.50;;;;;;;26.90;36.35;99882.38;5006484;28;20041;-69
2021/07/27 07:39:09;;;;;;;17.35;5.93;;;;;;;26.99;35.30;99876.88;5025213;28;20022;-70
2021/07/27 07:41:34;;;;;;;20.92;5.97;;;;;;;27.13;34.92;99880.72;5009690;28;20037;-70
2021/07/27 07:44:00;;;;;;;6.30;4.75;;;;;;;27.26;34.78;99869.41;5010182;28;20140;-70
2021/07/27 07:46:25;;;;;;;11.13;5.13;;;;;;;27.36;34.99;99876.16;5004870;28;20037;-70
2021/07/27 07:48:51;;;;;;;7.55;5.15;;;;;;;27.48;34.33;99875.50;5009737;28;20040;-70
2021/07/27 07:51:16;;;;;;;10.60;5.00;;;;;;;27.51;34.63;99871.72;5009658;28;20033;-70
2021/07/27 07:53:42;;;;;;;5.90;4.85;;;;;;;27.52;34.38;99870.50;5007704;28;20045;-69
2021/07/27 07:56:09;;;;;;;7.00;4.65;;;;;;;27.67;35.03;99858.72;5006584;28;20033;-69
2021/07/27 07:58:34;;;;;;;8.35;5.15;;;;;;;27.81;34.45;99861.28;5006780;28;20068;-69
2021/07/27 08:01:00;;;;;;;10.68;5.50;;;;;;;27.88;33.55;99858.25;5009394;28;20030;-69
2021/07/27 08:03:25;;;;;;;9.75;4.82;;;;;;;28.06;34.19;99851.25;5008227;28;20091;-69
2021/07/27 08:05:51;;;;;;;6.07;4.82;;;;;;;28.10;33.04;99846.22;5004125;28;20041;-70
2021/07/27 08:08:19;;;;;;;6.38;4.50;;;;;;;28.17;32.68;99848.13;5009378;28;20030;-70
2021/07/27 08:10:44;;;;;;;49.08;6.90;;;;;;;28.34;32.84;99848.97;5004484;28;20034;-70
2021/07/27 08:13:10;;;;;;;11.15;5.22;;;;;;;28.33;33.84;99844.47;5003872;28;20389;-69
2021/07/27 08:15:36;;;;;;;7.38;4.28;;;;;;;28.46;33.84;99841.69;5006173;28;20421;-69
2021/07/27 08:18:01;;;;;;;8.50;4.90;;;;;;;28.53;33.30;99834.94;4966929;28;1207565;-71
2021/07/27 08:20:29;;;;;;;11.32;5.35;;;;;;;28.38;32.49;99835.31;5024916;28;20504;-73
2021/07/27 08:22:57;;;;;;;9.75;5.38;;;;;;;28.59;33.46;99833.13;5005712;28;20041;-78
2021/07/27 08:25:25;;;;;;;13.18;4.72;;;;;;;28.54;33.19;99836.56;5013363;28;20515;-85
2021/07/27 08:27:51;;;;;;;15.40;5.35;;;;;;;28.59;33.18;99831.06;5012040;28;20447;-71
2021/07/27 08:30:17;;;;;;;10.10;4.45;;;;;;;28.70;32.32;99832.84;5014070;28;20030;-74
2021/07/27 08:32:47;;;;;;;14.25;5.18;;;;;;;28.75;32.43;99828.63;5010891;28;20042;-73
2021/07/27 08:35:13;;;;;;;10.90;4.90;;;;;;;28.71;32.36;99832.38;5013526;28;20057;-74
2021/07/27 08:37:39;;;;;;;20.50;5.90;;;;;;;28.97;32.47;99832.56;5003154;28;20033;-74
2021/07/27 08:40:05;;;;;;;12.18;5.43;;;;;;;29.06;32.66;99828.19;5009100;28;20503;-73
2021/07/27 08:42:31;;;;;;;14.38;4.80;;;;;;;29.10;32.03;99823.97;5014054;28;20056;-74
2021/07/27 08:45:03;;;;;;;5.28;4.28;;;;;;;29.23;31.04;99814.56;5013302;28;20041;-74
2021/07/27 08:47:31;;;;;;;11.52;4.57;;;;;;;29.22;31.34;99816.63;5013568;28;20030;-75
2021/07/27 08:49:59;;;;;;;9.50;4.97;;;;;;;29.39;32.63;99823.13;5013040;28;20030;-74
2021/07/27 08:52:24;;;;;;;8.80;4.97;;;;;;;29.48;32.29;99815.91;5013586;28;20030;-74
2021/07/27 08:54:50;;;;;;;6.80;4.80;;;;;;;29.70;32.78;99818.94;5013208;28;20025;-71
2021/07/27 08:57:15;;;;;;;17.77;7.10;;;;;;;29.80;32.18;99823.53;5011821;28;20462;-75
2021/07/27 08:59:41;;;;;;;8.00;4.78;;;;;;;29.87;31.68;99810.19;5011515;28;20029;-70
2021/07/27 09:02:07;;;;;;;6.53;5.07;;;;;;;29.88;31.81;99815.50;5013213;28;20021;-70
2021/07/27 09:04:32;;;;;;;10.73;5.13;;;;;;;29.91;32.36;99810.88;5013300;28;20038;-70
2021/07/27 09:07:02;;;;;;;6.80;4.72;;;;;;;29.96;30.90;99810.31;5011177;28;20057;-70
2021/07/27 09:09:30;;;;;;;;;;;;;;;30.08;31.97;99802.94;5011667;28;20066;-75
2021/07/27 09:11:57;;;;;;;10.18;5.47;;;;;;;30.16;31.35;99803.50;5011776;28;20365;-76
2021/07/27 09:14:25;;;;;;;10.20;5.70;;;;;;;30.30;31.02;99800.16;5012935;28;20431;-75
2021/07/27 09:16:55;;;;;;;10.88;5.18;;;;;;;30.49;30.11;99803.22;5008571;28;20400;-77
2021/07/27 09:19:20;;;;;;;;;;;;;;;30.51;29.99;99798.59;5013135;28;20054;-74
2021/07/27 09:21:47;;;;;;;11.65;5.05;;;;;;;30.62;30.58;99798.19;5012967;28;20383;-73
2021/07/27 09:24:22;;;;;;;21.60;5.47;;;;;;;30.63;31.90;99796.97;5013218;28;20033;-72
2021/07/27 09:27:12;;;;;;;17.60;5.45;;;;;;;30.72;31.87;99798.31;5012666;28;20038;-77
2021/07/27 09:29:45;;;;;;;13.43;6.93;;;;;;;30.86;31.42;99800.69;5027846;28;20030;-76
2021/07/27 09:32:20;;;;;;;17.58;6.47;;;;;;;30.82;31.59;99797.13;5011673;28;20030;-73
2021/07/27 09:34:47;;;;;;;9.18;5.07;;;;;;;30.82;31.98;99795.03;5007077;28;20030;-73
2021/07/27 09:37:13;;;;;;;11.73;5.25;;;;;;;30.89;31.94;99794.00;5001968;28;20053;-75
2021/07/27 09:39:39;;;;;;;11.77;5.40;;;;;;;30.90;31.34;99797.69;5012617;28;20121;-78
2021/07/27 09:42:08;;;;;;;8.05;4.93;;;;;;;31.13;30.46;99787.72;5009566;28;20108;-76
2021/07/27 09:44:37;;;;;;;7.95;5.63;;;;;;;31.19;29.53;99788.75;5010730;28;20488;-75
2021/07/27 09:47:04;;;;;;;11.87;5.60;;;;;;;31.24;30.51;99775.81;5011110;28;20029;-81
2021/07/27 09:49:30;;;;;;;10.48;5.68;;;;;;;31.31;29.81;99781.28;5011715;28;20460;-73
2021/07/27 09:51:56;;;;;;;14.30;5.05;;;;;;;31.44;29.50;99780.44;5011830;28;20025;-78
2021/07/27 09:54:23;;;;;;;7.63;5.43;;;;;;;31.44;29.60;99775.44;5024536;28;20030;-72
2021/07/27 09:56:56;;;;;;;6.55;5.50;;;;;;;31.63;29.82;99772.66;5012468;28;20460;-76
2021/07/27 09:59:23;;;;;;;16.90;5.05;;;;;;;31.68;30.66;99777.81;5009731;28;20492;-74
2021/07/27 10:02:03;;;;;;;13.38;5.25;;;;;;;31.70;30.81;99769.47;5010595;28;20460;-77
2021/07/27 10:04:37;;;;;;;11.82;5.45;;;;;;;31.79;30.36;99775.31;5006280;28;20486;-72
2021/07/27 10:07:05;;;;;;;10.27;5.05;;;;;;;31.77;30.21;99766.28;5010986;28;20033;-72
2021/07/27 10:09:32;;;;;;;12.90;5.43;;;;;;;31.85;29.79;99752.38;5009620;28;20044;-71
2021/07/27 10:12:08;;;;;;;7.30;4.80;;;;;;;31.92;29.46;99762.84;5008747;28;20026;-74
2021/07/27 10:14:44;;;;;;;12.68;4.90;;;;;;;32.10;29.54;99755.47;5004744;28;20076;-74
2021/07/27 10:17:11;;;;;;;7.40;5.25;;;;;;;32.20;29.29;99751.31;5009884;28;20081;-72
2021/07/27 10:19:41;;;;;;;14.10;5.10;;;;;;;32.37;28.92;99748.97;5008246;28;20405;-71
2021/07/27 10:22:08;;;;;;;4.70;4.30;;;;;;;32.38;28.84;99741.91;5005646;28;20026;-71
2021/07/27 10:24:43;;;;;;;10.77;4.75;;;;;;;32.51;29.05;99738.03;5008816;28;20990;-70
2021/07/27 10:27:19;;;;;;;10.90;5.18;;;;;;;32.48;28.61;99740.63;5008761;28;20076;-77
2021/07/27 10:29:45;;;;;;;11.50;6.30;;;;;;;32.52;28.42;99728.91;5007077;28;20503;-70
2021/07/27 10:32:22;;;;;;;9.30;4.80;;;;;;;32.70;27.04;99730.97;5007636;28;20032;-69
2021/07/27 10:34:47;;;;;;;14.68;4.72;;;;;;;32.82;28.08;99725.50;5005977;28;20034;-70
2021/07/27 10:37:17;;;;;;;10.57;5.25;;;;;;;32.95;28.46;99722.47;5011363;28;20105;-69
2021/07/27 10:39:53;;;;;;;7.60;5.10;;;;;;;32.84;27.84;99722.91;5010179;28;20090;-69
2021/07/27 10:42:20;;;;;;;6.05;4.40;;;;;;;32.86;26.67;99715.38;5009531;28;20046;-70
2021/07/27 10:44:47;;;;;;;9.55;6.32;;;;;;;33.13;27.49;99713.72;5025587;28;20034;-70
2021/07/27 10:47:21;;;;;;;7.28;4.70;;;;;;;33.09;26.49;99712.28;5011230;28;20017;-69
2021/07/27 10:49:57;;;;;;;6.20;4.88;;;;;;;33.13;26.66;99699.25;5008257;28;20125;-69
2021/07/27 10:52:25;;;;;;;13.73;5.95;;;;;;;33.23;27.42;99696.31;5011958;28;20085;-69
2021/07/27 10:54:58;;;;;;;12.27;6.53;;;;;;;33.40;26.95;99703.31;5004493;28;20088;-70
2021/07/27 10:57:30;;;;;;;25.50;5.82;;;;;;;33.49;27.20;99695.94;5008213;28;20524;-69
2021/07/27 10:59:56;;;;;;;6.75;5.10;;;;;;;33.61;26.37;99692.00;5009604;28;20030;-69
2021/07/27 11:02:23;;;;;;;14.93;5.65;;;;;;;33.64;26.14;99690.22;5008999;28;20052;-69
2021/07/27 11:04:48;;;;;;;13.63;6.00;;;;;;;33.63;25.48;99689.41;5010612;28;20131;-70
2021/07/27 11:07:16;;;;;;;7.65;5.57;;;;;;;33.55;26.70;99680.28;5009619;28;20974;-69
2021/07/27 11:09:48;;;;;;;12.52;5.35;;;;;;;33.67;25.96;99678.47;5010798;28;20038;-69
2021/07/27 11:12:24;;;;;;;16.48;7.38;;;;;;;33.79;26.57;99676.59;5009176;28;20466;-72
2021/07/27 11:14:49;;;;;;;17.35;6.55;;;;;;;33.81;25.74;99679.03;5003677;28;20033;-72
2021/07/27 11:17:23;;;;;;;11.85;6.85;;;;;;;33.86;26.77;99666.72;5009178;28;20060;-73
2021/07/27 11:19:51;;;;;;;11.30;6.03;;;;;;;33.93;26.05;99672.19;4995046;28;20137;-71
2021/07/27 11:22:16;;;;;;;8.55;5.60;;;;;;;33.98;24.34;99667.78;5009514;28;20471;-73
2021/07/27 11:24:42;;;;;;;13.93;7.05;;;;;;;34.05;25.59;99661.63;5007879;28;20041;-73
2021/07/27 11:27:12;;;;;;;11.23;6.25;;;;;;;34.14;24.62;99663.66;5009240;28;20026;-73
2021/07/27 11:29:38;;;;;;;18.23;7.22;;;;;;;34.22;25.28;99652.50;5010160;28;20037;-73
2021/07/27 11:32:13;;;;;;;15.68;5.88;;;;;;;34.11;25.14;99661.75;5010721;28;20133;-73
2021/07/27 11:34:39;;;;;;;8.63;5.93;;;;;;;34.33;25.26;99654.81;5009304;28;20112;-73
2021/07/27 11:37:04;;;;;;;9.98;6.07;;;;;;;34.36;25.55;99650.91;5009800;28;20133;-73
2021/07/27 11:39:41;;;;;;;11.43;6.30;;;;;;;34.29;25.03;99650.00;5008674;28;20038;-74
2021/07/27 11:42:07;;;;;;;16.33;7.25;;;;;;;34.35;25.01;99637.69;5010539;28;20404;-73
2021/07/27 11:44:32;;;;;;;11.80;5.78;;;;;;;34.38;24.75;99645.41;5010283;28;20048;-73
2021/07/27 11:46:58;;;;;;;15.10;6.35;;;;;;;34.32;25.09;99636.59;5009256;28;20022;-73
2021/07/27 11:49:25;;;;;;;17.65;7.13;;;;;;;34.46;23.46;99637.91;5010403;28;20407;-73